KLGF/LGF METAR and TAF weather

Enter ICAO airport designator
Station Type Date Time Source
KLGF METAR 2019/12/07 04:58 UTC NOAA

KLGF 070458Z AUTO 28005KT 9SM R36/5500FT BKN210 20/20 A3016 RMK AO2 SLP212 T01980198 $


Station Type Date Time Source
KLGF Decoded METAR 2019/12/07 04:58 UTC NOAA

Station name not available
Dec 06, 2019 - 11:58 PM EST / 2019.12.07 0458 UTC
Wind: from the W (280 degrees) at 6 MPH (5 KT):0
Visibility: 9 mile(s):0
Sky conditions: mostly cloudy
Temperature: 67.6 F (19.8 C)
Dew Point: 67.6 F (19.8 C)
Relative Humidity: 100%
Pressure (altimeter): 30.16 in. Hg (1021 hPa)
ob: KLGF 070458Z AUTO 28005KT 9SM R36/5500FT BKN210 20/20 A3016 RMK AO2 SLP212 T01980198
cycle: 5

Station Type Date Time Source
KLGF TAF UTC NOAA

Error!

Example: see airport list